Apus — XUCT7 — position and weather

sailwx.info

Track history (hours):
 
Tides and Currents Weather Stations Pressure Air Temp Water Temp Dewpoint Dewpoint Depression Visibility Wind Speed Wind Dir Waves Ship Positions

Apus

Last reported at 2014-Jul-28 23:30 UTC. Time now 2014-Jul-29 02:34 UTC.
Position N 39°43' E 025°43'.

Length 93 m; draft 6.1 m.

Type: Pleasure craft. MMSI: 515102000.

Date/timePositionNaut miles runAvg speedWind from/ knotsBaromVisibWave heightAir tempDewpointWater temp
2014-Jul-28 23:30N 39°43' E 025°43'1111.5
2014-Jul-28 22:32N 39°54' E 025°44'2 2.2
2014-Jul-28 21:33N 39°55' E 025°46'9 9.4
2014-Jul-28 20:33N 39°59' E 025°57'9 9.1
2014-Jul-28 19:33N 40°02' E 026°09'1310.0
2014-Jul-28 18:14N 40°09' E 026°23'  
2014-Jul-25 16:33N 40°58' E 028°59'4 3.6
2014-Jul-25 15:30N 40°56' E 028°55'2 0.6
2014-Jul-25 12:31N 40°58' E 028°53'0 0.0
2014-Jul-25 09:13N 40°58' E 028°53'0 0.0
2014-Jul-24 19:25N 40°58' E 028°53'0 0.0
2014-Jul-24 03:28N 40°58' E 028°53'0 0.0
2014-Jul-23 23:16N 40°58' E 028°53'0 0.0
2014-Jul-23 19:28N 40°58' E 028°53'0 0.0
2014-Jul-23 16:10N 40°58' E 028°53'0 0.1
2014-Jul-23 15:22N 40°58' E 028°54'0 0.0
2014-Jul-23 10:16N 40°58' E 028°54'0 0.0
2014-Jul-23 09:28N 40°58' E 028°54'0 0.0
2014-Jul-23 07:10N 40°58' E 028°54'0 0.0
2014-Jul-23 06:22N 40°58' E 028°54'0 0.0
2014-Jul-23 05:16N 40°58' E 028°54'0 0.0
2014-Jul-23 01:10N 40°58' E 028°53'111 3.9
2014-Jul-21 20:30N 40°19' E 026°36'190 9.5
2014-Jul-21 00:29N 37°38' E 024°27'4110.3
2014-Jul-20 20:32N 37°01' E 024°07'1010.2
2014-Jul-20 19:33N 36°51' E 024°03'1110.4
2014-Jul-20 18:30N 36°41' E 023°58'3110.5
2014-Jul-20 15:31N 36°12' E 023°43'  
Track history (hours):
 
Tides and Currents Weather Stations Pressure Air Temp Water Temp Dewpoint Dewpoint Depression Visibility Wind Speed Wind Dir Waves Ship Positions

Apus

Last reported at 2014-Jul-28 23:30 UTC. Time now 2014-Jul-29 02:34 UTC.
Position N 39°43' E 025°43'.

Length 93 m; draft 6.1 m.

Type: Pleasure craft. MMSI: 515102000.

Date/timePositionNaut miles runAvg speedWind from/ knotsBaromVisibWave heightAir tempDewpointWater temp
2014-Jul-28 23:30N 39°43' E 025°43'1111.5
2014-Jul-28 22:32N 39°54' E 025°44'2 2.2
2014-Jul-28 21:33N 39°55' E 025°46'9 9.4
2014-Jul-28 20:33N 39°59' E 025°57'9 9.1
2014-Jul-28 19:33N 40°02' E 026°09'1310.0
2014-Jul-28 18:14N 40°09' E 026°23'  
2014-Jul-25 16:33N 40°58' E 028°59'4 3.6
2014-Jul-25 15:30N 40°56' E 028°55'2 0.6
2014-Jul-25 12:31N 40°58' E 028°53'0 0.0
2014-Jul-25 09:13N 40°58' E 028°53'0 0.0
2014-Jul-24 19:25N 40°58' E 028°53'0 0.0
2014-Jul-24 03:28N 40°58' E 028°53'0 0.0
2014-Jul-23 23:16N 40°58' E 028°53'0 0.0
2014-Jul-23 19:28N 40°58' E 028°53'0 0.0
2014-Jul-23 16:10N 40°58' E 028°53'0 0.1
2014-Jul-23 15:22N 40°58' E 028°54'0 0.0
2014-Jul-23 10:16N 40°58' E 028°54'0 0.0
2014-Jul-23 09:28N 40°58' E 028°54'0 0.0
2014-Jul-23 07:10N 40°58' E 028°54'0 0.0
2014-Jul-23 06:22N 40°58' E 028°54'0 0.0
2014-Jul-23 05:16N 40°58' E 028°54'0 0.0
2014-Jul-23 01:10N 40°58' E 028°53'111 3.9
2014-Jul-21 20:30N 40°19' E 026°36'190 9.5
2014-Jul-21 00:29N 37°38' E 024°27'4110.3
2014-Jul-20 20:32N 37°01' E 024°07'1010.2
2014-Jul-20 19:33N 36°51' E 024°03'1110.4
2014-Jul-20 18:30N 36°41' E 023°58'3110.5
2014-Jul-20 15:31N 36°12' E 023°43'  

Dump ship's entire track history